Terminal Aerodrome Forecast
Issued by NWS Topeka, KS

Home | Current Version | Previous Version | Text Only | Print | Product List | Glossary Off
Versions: 1 2 3 4 5 6 7 8 9 10 11 12

745
FTUS43 KTOP 210520
TAFTOP
TAF
KTOP 210520Z 2106/2206 10005KT P6SM SCT130
     FM211400 17011KT P6SM SCT090
     FM220300 16011G19KT P6SM FEW250=

USA.gov is the U.S. government's official web portal to all federal, state and local government web resources and services.